Time;durP1;ratioP1;P1;durP2;ratioP2;P2;SDS_P1;SDS_P2;PMS_P1;PMS_P2;Temp;Humidity;BMP_temperature;BMP_pressure;BME280_temperature;BME280_humidity;BME280_pressure;Samples;Min_cycle;Max_cycle;Signal;HPM_P1;HPM_P2
2023/08/25 00:02:25;;;;;;;5.55;2.55;;;;;;;;;;5049245;28;20268;-87
2023/08/25 00:04:51;;;;;;;4.45;2.72;;;;;;;;;;5052834;28;20017;-88
2023/08/25 00:07:17;;;;;;;13.88;2.60;;;;;;;;;;5046247;28;20434;-88
2023/08/25 00:09:46;;;;;;;4.93;2.30;;;;;;;;;;5046187;28;20024;-88
2023/08/25 00:12:13;;;;;;;4.20;2.90;;;;;;;;;;5049517;28;20031;-89
2023/08/25 00:14:39;;;;;;;4.40;2.30;;;;;;;;;;5048752;28;20048;-87
2023/08/25 00:17:05;;;;;;;4.95;2.40;;;;;;;;;;5063162;28;20465;-87
2023/08/25 00:19:31;;;;;;;5.13;2.25;;;;;;;;;;5067538;28;20028;-89
2023/08/25 00:21:57;;;;;;;7.03;2.05;;;;;;;;;;5047294;28;20027;-89
2023/08/25 00:24:23;;;;;;;4.55;1.98;;;;;;;;;;5053409;28;20440;-88
2023/08/25 00:26:49;;;;;;;6.18;2.22;;;;;;;;;;5062284;28;20028;-89
2023/08/25 00:29:15;;;;;;;7.95;2.10;;;;;;;;;;5064938;28;20021;-89
2023/08/25 00:31:41;;;;;;;7.88;2.10;;;;;;;;;;5053403;28;20028;-89
2023/08/25 00:34:07;;;;;;;5.07;2.40;;;;;;;;;;5049139;28;20052;-88
2023/08/25 00:36:33;;;;;;;6.47;2.38;;;;;;;;;;5048379;28;20025;-89
2023/08/25 00:38:59;;;;;;;7.38;2.20;;;;;;;;;;5063268;28;20017;-89
2023/08/25 00:41:25;;;;;;;3.80;1.92;;;;;;;;;;5054746;28;20016;-89
2023/08/25 00:43:52;;;;;;;4.90;2.10;;;;;;;;;;5067231;28;20385;-90
2023/08/25 00:46:19;;;;;;;7.72;2.30;;;;;;;;;;5052895;28;20028;-90
2023/08/25 00:48:45;;;;;;;2.80;2.15;;;;;;;;;;5065375;28;20527;-91
2023/08/25 00:51:11;;;;;;;3.83;1.98;;;;;;;;;;5050591;28;20032;-90
2023/08/25 00:53:38;;;;;;;3.35;1.80;;;;;;;;;;5064890;28;20031;-90
2023/08/25 00:56:04;;;;;;;5.00;1.92;;;;;;;;;;5047270;28;20047;-89
2023/08/25 00:58:30;;;;;;;7.50;2.08;;;;;;;;;;5051607;28;20033;-90
2023/08/25 01:00:57;;;;;;;3.67;2.08;;;;;;;;;;5067929;28;20029;-90
2023/08/25 01:03:23;;;;;;;4.72;1.80;;;;;;;;;;5063190;28;20103;-89
2023/08/25 01:05:49;;;;;;;6.35;2.00;;;;;;;;;;5061979;28;20025;-89
2023/08/25 01:08:16;;;;;;;6.28;2.33;;;;;;;;;;5047242;28;20024;-90
2023/08/25 01:11:01;;;;;;;7.68;2.22;;;;;;;;;;5057877;28;20021;-90
2023/08/25 01:13:32;;;;;;;4.65;1.95;;;;;;;;;;5049955;28;20021;-90
2023/08/25 01:15:58;;;;;;;7.00;2.42;;;;;;;;;;5049064;28;20498;-89
2023/08/25 01:18:28;;;;;;;4.43;2.05;;;;;;;;;;5061451;28;20692;-90
2023/08/25 01:20:55;;;;;;;7.82;2.30;;;;;;;;;;5050178;28;20044;-88
2023/08/25 01:23:48;;;;;;;4.95;2.10;;;;;;;;;;5047497;28;20087;-89
2023/08/25 01:26:16;;;;;;;2.67;1.55;;;;;;;;;;5064270;28;20025;-90
2023/08/25 01:28:42;;;;;;;4.28;2.00;;;;;;;;;;5062687;28;20021;-90
2023/08/25 01:31:09;;;;;;;5.53;1.70;;;;;;;;;;5062219;28;20117;-90
2023/08/25 01:33:35;;;;;;;3.42;1.90;;;;;;;;;;5062595;28;20037;-90
2023/08/25 01:36:13;;;;;;;4.95;1.73;;;;;;;;;;5069486;28;20013;-89
2023/08/25 01:38:47;;;;;;;5.15;2.10;;;;;;;;;;5068592;28;20025;-90
2023/08/25 01:41:19;;;;;;;2.45;1.60;;;;;;;;;;5049994;28;20171;-89
2023/08/25 01:43:47;;;;;;;4.95;1.83;;;;;;;;;;5069563;28;20064;-89
2023/08/25 01:46:15;;;;;;;8.27;2.40;;;;;;;;;;5051117;28;20116;-89
2023/08/25 01:48:43;;;;;;;9.25;2.28;;;;;;;;;;5054347;28;20013;-89
2023/08/25 01:51:14;;;;;;;5.90;2.17;;;;;;;;;;5065392;28;20485;-90
2023/08/25 01:53:42;;;;;;;4.28;2.30;;;;;;;;;;5065263;28;20492;-90
2023/08/25 01:56:09;;;;;;;4.40;1.83;;;;;;;;;;5070383;28;20024;-90
2023/08/25 01:58:35;;;;;;;3.05;1.83;;;;;;;;;;5069183;28;20122;-90
2023/08/25 02:01:01;;;;;;;5.90;2.00;;;;;;;;;;5066564;28;20032;-89
2023/08/25 02:03:27;;;;;;;5.15;2.25;;;;;;;;;;5068612;28;20028;-89
2023/08/25 02:05:53;;;;;;;2.67;1.88;;;;;;;;;;5052888;28;20089;-90
2023/08/25 02:08:19;;;;;;;4.55;1.80;;;;;;;;;;5047839;28;20021;-90
2023/08/25 02:10:45;;;;;;;8.80;3.08;;;;;;;;;;5047685;28;20497;-90
2023/08/25 02:13:13;;;;;;;4.97;1.77;;;;;;;;;;5049744;28;20033;-91
2023/08/25 02:15:42;;;;;;;5.20;2.10;;;;;;;;;;5062887;28;20087;-89
2023/08/25 02:18:08;;;;;;;3.78;2.38;;;;;;;;;;5049306;28;20100;-92
2023/08/25 02:20:38;;;;;;;3.92;2.20;;;;;;;;;;5054745;28;20060;-88
2023/08/25 02:23:04;;;;;;;;;;;;;;;;;;5051841;28;20092;-90
2023/08/25 02:25:31;;;;;;;4.13;2.20;;;;;;;;;;5065571;28;19959;-89
2023/08/25 02:27:57;;;;;;;4.10;2.22;;;;;;;;;;5073605;28;20017;-91
2023/08/25 02:30:23;;;;;;;13.30;2.50;;;;;;;;;;5053744;28;20033;-90
2023/08/25 02:32:49;;;;;;;4.75;2.00;;;;;;;;;;5049187;28;20021;-91
2023/08/25 02:35:16;;;;;;;2.63;2.10;;;;;;;;;;5048186;28;20507;-92
2023/08/25 02:38:00;;;;;;;7.78;2.67;;;;;;;;;;5051057;28;20029;-91
2023/08/25 02:40:27;;;;;;;6.57;2.13;;;;;;;;;;5055779;28;20028;-91
2023/08/25 02:42:54;;;;;;;6.75;2.38;;;;;;;;;;5050387;28;20048;-91
2023/08/25 02:45:23;;;;;;;8.57;2.70;;;;;;;;;;5057013;28;20465;-91
2023/08/25 02:47:49;;;;;;;8.50;2.38;;;;;;;;;;5063386;28;20052;-92
2023/08/25 02:50:15;;;;;;;8.35;2.25;;;;;;;;;;5052759;28;20111;-91
2023/08/25 02:52:41;;;;;;;5.85;2.20;;;;;;;;;;5051067;28;20483;-92
2023/08/25 02:55:07;;;;;;;3.40;2.05;;;;;;;;;;5066938;28;20059;-92
2023/08/25 02:57:33;;;;;;;6.45;2.33;;;;;;;;;;5045246;28;20029;-90
2023/08/25 02:59:59;;;;;;;7.20;2.53;;;;;;;;;;5056739;28;20079;-91
2023/08/25 03:02:26;;;;;;;4.40;1.80;;;;;;;;;;5050328;28;20025;-91
2023/08/25 03:04:52;;;;;;;5.80;2.05;;;;;;;;;;5050238;28;20036;-91
2023/08/25 03:07:18;;;;;;;4.88;1.95;;;;;;;;;;5053394;28;20025;-93
2023/08/25 03:09:44;;;;;;;4.40;2.42;;;;;;;;;;5070408;28;20469;-91
2023/08/25 03:12:10;;;;;;;3.42;2.25;;;;;;;;;;5067597;28;20067;-92
2023/08/25 03:14:36;;;;;;;5.13;2.22;;;;;;;;;;5053465;28;20036;-91
2023/08/25 03:17:02;;;;;;;6.03;2.25;;;;;;;;;;5056668;28;20111;-91
2023/08/25 03:19:28;;;;;;;8.63;2.78;;;;;;;;;;5063319;28;20036;-91
2023/08/25 03:21:54;;;;;;;5.47;3.03;;;;;;;;;;5053914;28;20044;-92
2023/08/25 03:24:20;;;;;;;4.72;2.58;;;;;;;;;;5054484;28;20013;-92
2023/08/25 03:26:46;;;;;;;4.22;2.28;;;;;;;;;;5056374;28;20031;-92
2023/08/25 03:29:12;;;;;;;5.80;2.30;;;;;;;;;;5068647;28;20021;-93
2023/08/25 03:31:38;;;;;;;6.90;3.45;;;;;;;;;;5051040;28;20082;-92
2023/08/25 03:34:05;;;;;;;7.18;2.40;;;;;;;;;;5063613;28;20161;-92
2023/08/25 03:36:31;;;;;;;4.70;1.98;;;;;;;;;;5050672;28;20123;-93
2023/08/25 03:38:57;;;;;;;6.05;2.20;;;;;;;;;;5043258;28;20020;-94
2023/08/25 03:41:23;;;;;;;4.70;2.25;;;;;;;;;;5051635;28;20036;-92
2023/08/25 03:43:49;;;;;;;7.22;2.38;;;;;;;;;;5053927;28;20020;-92
2023/08/25 03:46:15;;;;;;;8.30;2.50;;;;;;;;;;5052636;28;20527;-92
2023/08/25 03:48:41;;;;;;;7.43;2.30;;;;;;;;;;5068615;28;20056;-91
2023/08/25 03:51:07;;;;;;;6.00;2.35;;;;;;;;;;5064367;28;20017;-88
2023/08/25 03:53:34;;;;;;;6.32;2.10;;;;;;;;;;5045322;28;20484;-89
2023/08/25 03:56:00;;;;;;;3.15;2.15;;;;;;;;;;5063803;28;20028;-92
2023/08/25 03:58:26;;;;;;;7.15;2.53;;;;;;;;;;5049850;28;20040;-91
2023/08/25 04:00:54;;;;;;;4.82;2.45;;;;;;;;;;5046600;28;20524;-94
2023/08/25 04:03:20;;;;;;;9.32;2.53;;;;;;;;;;5062699;28;20024;-83
2023/08/25 04:05:46;;;;;;;6.60;2.42;;;;;;;;;;5064048;28;20423;-84
2023/08/25 04:08:12;;;;;;;7.22;2.75;;;;;;;;;;5063349;28;20431;-83
2023/08/25 04:10:39;;;;;;;9.23;2.47;;;;;;;;;;5050206;28;20384;-84
2023/08/25 04:13:05;;;;;;;5.65;2.40;;;;;;;;;;5065954;28;20382;-83
2023/08/25 04:15:32;;;;;;;7.88;2.42;;;;;;;;;;5064528;28;20044;-84
2023/08/25 04:17:58;;;;;;;5.60;2.47;;;;;;;;;;5062321;28;20476;-84
2023/08/25 04:20:24;;;;;;;5.03;2.30;;;;;;;;;;5038268;28;20025;-83
2023/08/25 04:22:50;;;;;;;8.85;2.47;;;;;;;;;;5051624;28;20018;-84
2023/08/25 04:25:16;;;;;;;3.67;2.63;;;;;;;;;;5068154;28;20029;-84
2023/08/25 04:27:42;;;;;;;5.75;2.05;;;;;;;;;;5064689;28;20028;-82
2023/08/25 04:30:09;;;;;;;4.45;2.03;;;;;;;;;;5049706;28;20044;-82
2023/08/25 04:32:35;;;;;;;3.67;2.42;;;;;;;;;;5052227;28;20025;-82
2023/08/25 04:35:01;;;;;;;5.82;2.72;;;;;;;;;;5046202;28;20038;-84
2023/08/25 04:37:27;;;;;;;9.32;2.28;;;;;;;;;;5065436;28;20025;-95
2023/08/25 04:39:55;;;;;;;5.50;2.42;;;;;;;;;;5051033;28;20029;-95
2023/08/25 04:42:21;;;;;;;10.30;2.70;;;;;;;;;;5065371;28;20020;-93
2023/08/25 04:44:48;;;;;;;8.18;2.40;;;;;;;;;;5065763;28;20485;-95
2023/08/25 04:47:15;;;;;;;5.45;2.58;;;;;;;;;;5051999;28;20420;-94
2023/08/25 04:49:41;;;;;;;7.45;2.55;;;;;;;;;;5068742;28;20027;-95
2023/08/25 04:52:08;;;;;;;9.45;3.00;;;;;;;;;;5052132;28;20009;-94
2023/08/25 04:54:35;;;;;;;8.88;2.17;;;;;;;;;;5063639;28;20108;-95
2023/08/25 04:57:01;;;;;;;4.22;2.28;;;;;;;;;;5050198;28;20171;-92
2023/08/25 04:59:27;;;;;;;5.38;2.22;;;;;;;;;;5047884;28;20496;-93
2023/08/25 05:01:53;;;;;;;4.65;2.45;;;;;;;;;;5045769;28;20025;-95
2023/08/25 05:04:19;;;;;;;4.45;2.05;;;;;;;;;;5066050;28;20365;-96
2023/08/25 05:06:45;;;;;;;12.13;2.15;;;;;;;;;;5062295;28;20021;-93
2023/08/25 05:09:11;;;;;;;4.38;2.08;;;;;;;;;;5065076;28;20020;-93
2023/08/25 05:11:39;;;;;;;6.20;2.40;;;;;;;;;;5046075;28;20028;-94
2023/08/25 05:14:05;;;;;;;3.47;2.35;;;;;;;;;;5045705;28;20033;-95
2023/08/25 05:16:31;;;;;;;8.30;2.20;;;;;;;;;;5064161;28;20100;-96
2023/08/25 05:18:58;;;;;;;4.75;2.30;;;;;;;;;;5045570;28;20051;-94
2023/08/25 05:21:24;;;;;;;6.95;2.45;;;;;;;;;;5052553;28;20025;-96
2023/08/25 05:23:53;;;;;;;4.22;2.50;;;;;;;;;;5065214;28;20047;-93
2023/08/25 05:26:19;;;;;;;2.63;1.80;;;;;;;;;;5053243;28;20095;-94
2023/08/25 05:28:45;;;;;;;2.30;1.83;;;;;;;;;;5046565;28;20025;-93
2023/08/25 05:31:11;;;;;;;3.30;1.70;;;;;;;;;;5047688;28;20123;-93
2023/08/25 05:33:38;;;;;;;4.22;1.70;;;;;;;;;;5044827;28;20029;-91
2023/08/25 05:36:04;;;;;;;7.32;1.90;;;;;;;;;;5044251;28;20021;-94
2023/08/25 05:38:30;;;;;;;5.65;2.30;;;;;;;;;;5046353;28;20021;-94
2023/08/25 05:40:56;;;;;;;2.95;1.88;;;;;;;;;;5048302;28;20063;-91
2023/08/25 05:43:22;;;;;;;5.63;2.40;;;;;;;;;;5051133;28;20016;-93
2023/08/25 05:45:52;;;;;;;5.43;2.40;;;;;;;;;;5046061;28;20029;-92
2023/08/25 05:48:18;;;;;;;3.80;2.22;;;;;;;;;;5055841;28;20079;-94
2023/08/25 05:50:46;;;;;;;9.02;2.25;;;;;;;;;;5046030;28;20033;-93
2023/08/25 05:53:14;;;;;;;7.70;2.10;;;;;;;;;;5064174;28;20031;-93
2023/08/25 05:55:41;;;;;;;8.13;1.95;;;;;;;;;;5063677;28;20520;-91
2023/08/25 05:58:07;;;;;;;3.80;2.08;;;;;;;;;;5065748;28;20029;-92
2023/08/25 06:00:34;;;;;;;5.35;2.28;;;;;;;;;;5046014;28;20044;-93
2023/08/25 06:03:03;;;;;;;3.30;2.38;;;;;;;;;;5050722;28;20419;-93
2023/08/25 06:05:30;;;;;;;6.97;2.28;;;;;;;;;;5064444;28;20103;-90
2023/08/25 06:07:56;;;;;;;4.80;2.60;;;;;;;;;;5060625;28;20080;-94
2023/08/25 06:10:22;;;;;;;3.92;2.20;;;;;;;;;;5048872;28;20056;-94
2023/08/25 06:12:48;;;;;;;3.42;2.00;;;;;;;;;;5049630;28;20021;-92
2023/08/25 06:15:15;;;;;;;4.25;2.13;;;;;;;;;;5043840;28;20443;-93
2023/08/25 06:17:41;;;;;;;5.80;2.20;;;;;;;;;;5050253;28;20036;-95
2023/08/25 06:20:07;;;;;;;5.80;2.20;;;;;;;;;;5050238;28;20028;-96
2023/08/25 06:22:33;;;;;;;7.88;3.00;;;;;;;;;;5055055;28;20031;-92
2023/08/25 06:24:59;;;;;;;4.13;2.28;;;;;;;;;;5069401;28;20021;-93
2023/08/25 06:27:25;;;;;;;3.47;2.25;;;;;;;;;;5066394;28;20479;-93
2023/08/25 06:29:52;;;;;;;6.18;2.20;;;;;;;;;;5067775;28;20017;-94
2023/08/25 06:32:18;;;;;;;7.22;2.33;;;;;;;;;;5068535;28;20031;-94
2023/08/25 06:34:48;;;;;;;6.60;2.30;;;;;;;;;;5048972;28;20028;-95
2023/08/25 06:37:14;;;;;;;4.25;2.40;;;;;;;;;;5054608;28;20470;-94
2023/08/25 06:39:40;;;;;;;7.18;2.35;;;;;;;;;;5055904;28;20377;-95
2023/08/25 06:42:06;;;;;;;7.20;2.30;;;;;;;;;;5056060;28;20116;-95
2023/08/25 06:44:32;;;;;;;8.95;2.45;;;;;;;;;;5062619;28;20029;-96
2023/08/25 06:46:58;;;;;;;6.57;2.13;;;;;;;;;;5077853;28;20086;-95
2023/08/25 06:49:25;;;;;;;2.35;2.03;;;;;;;;;;5071465;28;20056;-95
2023/08/25 06:51:51;;;;;;;3.70;2.30;;;;;;;;;;5060609;28;20029;-95
2023/08/25 06:54:17;;;;;;;3.50;2.15;;;;;;;;;;5061329;28;20489;-94
2023/08/25 06:56:44;;;;;;;4.90;1.90;;;;;;;;;;5055252;28;20078;-96
2023/08/25 06:59:13;;;;;;;3.38;1.77;;;;;;;;;;5056299;28;20034;-95
2023/08/25 07:01:39;;;;;;;5.07;2.05;;;;;;;;;;5053874;28;20024;-95
2023/08/25 07:04:06;;;;;;;4.95;2.28;;;;;;;;;;5076654;28;20125;-96
2023/08/25 07:06:32;;;;;;;2.60;2.00;;;;;;;;;;5054314;28;20388;-95
2023/08/25 07:09:03;;;;;;;5.63;2.20;;;;;;;;;;5060989;28;20096;-96
2023/08/25 07:11:30;;;;;;;3.60;2.15;;;;;;;;;;5067805;28;20025;-93
2023/08/25 07:13:56;;;;;;;6.15;2.80;;;;;;;;;;5054641;28;20465;-93
2023/08/25 07:16:22;;;;;;;3.70;2.20;;;;;;;;;;5055274;28;20567;-92
2023/08/25 07:18:48;;;;;;;3.70;2.33;;;;;;;;;;5047207;28;20020;-92
2023/08/25 07:21:20;;;;;;;3.47;2.10;;;;;;;;;;5047149;28;20059;-96
2023/08/25 07:23:55;;;;;;;3.70;2.10;;;;;;;;;;5051124;28;20028;-95
2023/08/25 07:26:25;;;;;;;7.18;2.33;;;;;;;;;;5050512;28;20029;-93
2023/08/25 07:28:55;;;;;;;6.15;2.30;;;;;;;;;;5056679;28;20064;-96
2023/08/25 07:31:21;;;;;;;2.83;2.00;;;;;;;;;;5056349;28;20044;-91
2023/08/25 07:33:47;;;;;;;7.60;2.35;;;;;;;;;;5053046;28;20053;-92
2023/08/25 07:36:13;;;;;;;6.07;2.58;;;;;;;;;;5052973;28;20564;-94
2023/08/25 07:38:39;;;;;;;3.30;2.42;;;;;;;;;;5055385;28;20076;-95
2023/08/25 07:41:08;;;;;;;4.43;2.30;;;;;;;;;;5060320;28;20058;-95
2023/08/25 07:43:37;;;;;;;6.93;2.33;;;;;;;;;;5056879;28;20025;-96
2023/08/25 07:46:03;;;;;;;5.15;2.22;;;;;;;;;;5069423;28;20519;-91
2023/08/25 07:48:33;;;;;;;6.13;2.00;;;;;;;;;;5060381;28;20032;-96
2023/08/25 07:50:59;;;;;;;7.88;2.25;;;;;;;;;;5058295;28;20040;-90
2023/08/25 07:53:25;;;;;;;6.07;2.88;;;;;;;;;;5050417;28;20025;-94
2023/08/25 07:56:01;;;;;;;7.20;2.58;;;;;;;;;;5073924;28;20029;-96
2023/08/25 07:58:27;;;;;;;5.50;2.80;;;;;;;;;;5054227;28;20033;-93
2023/08/25 08:00:56;;;;;;;8.25;2.42;;;;;;;;;;5057555;28;20028;-96
2023/08/25 08:03:22;;;;;;;6.35;2.60;;;;;;;;;;5052915;28;20446;-96
2023/08/25 08:05:51;;;;;;;3.67;2.47;;;;;;;;;;5052732;28;20051;-96
2023/08/25 08:08:17;;;;;;;3.00;2.00;;;;;;;;;;5053677;28;20108;-92
2023/08/25 08:10:44;;;;;;;3.45;2.22;;;;;;;;;;5070033;28;20025;-93
2023/08/25 08:13:10;;;;;;;2.80;1.98;;;;;;;;;;5052240;28;20032;-92
2023/08/25 08:15:36;;;;;;;4.88;2.30;;;;;;;;;;5048908;28;20115;-93
2023/08/25 08:18:02;;;;;;;7.85;2.13;;;;;;;;;;5042984;28;20037;-94
2023/08/25 08:20:28;;;;;;;5.40;2.42;;;;;;;;;;5052922;28;20077;-94
2023/08/25 08:22:55;;;;;;;7.07;2.33;;;;;;;;;;5063551;28;20079;-94
2023/08/25 08:25:21;;;;;;;2.35;2.03;;;;;;;;;;5051109;28;20134;-95
2023/08/25 08:27:47;;;;;;;6.80;2.05;;;;;;;;;;5068422;28;20035;-96
2023/08/25 08:30:16;;;;;;;3.70;2.15;;;;;;;;;;5073884;28;20029;-94
2023/08/25 08:32:43;;;;;;;4.43;2.27;;;;;;;;;;5072661;28;20020;-94
2023/08/25 08:35:09;;;;;;;4.97;2.10;;;;;;;;;;5052322;28;20295;-96
2023/08/25 08:37:36;;;;;;;2.65;1.85;;;;;;;;;;5056038;28;20082;-95
2023/08/25 08:40:05;;;;;;;2.70;1.90;;;;;;;;;;5067554;28;20012;-95
2023/08/25 08:42:33;;;;;;;3.53;1.98;;;;;;;;;;5056410;28;20044;-92
2023/08/25 08:45:03;;;;;;;3.40;1.80;;;;;;;;;;5073876;28;20036;-94
2023/08/25 08:47:29;;;;;;;5.45;1.85;;;;;;;;;;5056037;28;20052;-96
2023/08/25 08:49:58;;;;;;;10.98;2.40;;;;;;;;;;5053114;28;20041;-96
2023/08/25 08:52:31;;;;;;;6.07;2.10;;;;;;;;;;5054513;28;20125;-96
2023/08/25 08:54:59;;;;;;;3.90;1.88;;;;;;;;;;5073776;28;20035;-94
2023/08/25 08:57:31;;;;;;;3.15;2.00;;;;;;;;;;5079656;28;20033;-96
2023/08/25 09:00:01;;;;;;;3.50;2.25;;;;;;;;;;5053836;28;20050;-94
2023/08/25 09:02:39;;;;;;;2.97;1.70;;;;;;;;;;5057598;28;20025;-96
2023/08/25 09:05:13;;;;;;;4.13;2.03;;;;;;;;;;5074338;28;20020;-96
2023/08/25 09:07:40;;;;;;;2.13;1.60;;;;;;;;;;5054819;28;20025;-95
2023/08/25 09:10:07;;;;;;;6.20;1.80;;;;;;;;;;5068580;28;20071;-92
2023/08/25 09:12:34;;;;;;;4.47;2.00;;;;;;;;;;5064126;28;20025;-96
2023/08/25 09:15:03;;;;;;;3.15;1.80;;;;;;;;;;5056866;28;20104;-96
2023/08/25 09:17:55;;;;;;;3.22;2.33;;;;;;;;;;5079789;28;20020;-96
2023/08/25 09:20:26;;;;;;;3.88;1.88;;;;;;;;;;5060005;28;20104;-96
2023/08/25 09:23:22;;;;;;;6.93;1.92;;;;;;;;;;5071287;28;20124;-95
2023/08/25 09:25:48;;;;;;;3.88;1.98;;;;;;;;;;5060998;28;20084;-95
2023/08/25 09:28:20;;;;;;;4.97;1.92;;;;;;;;;;5058767;28;20025;-96
2023/08/25 09:30:47;;;;;;;3.53;1.95;;;;;;;;;;5061785;28;20036;-94
2023/08/25 09:33:15;;;;;;;4.80;1.85;;;;;;;;;;5070843;28;20056;-94
2023/08/25 09:35:44;;;;;;;5.80;2.25;;;;;;;;;;5059093;28;20036;-94
2023/08/25 09:38:21;;;;;;;4.07;1.85;;;;;;;;;;5070419;28;20036;-95
2023/08/25 09:40:47;;;;;;;4.15;2.03;;;;;;;;;;5064174;28;20028;-96
2023/08/25 09:43:17;;;;;;;3.55;2.58;;;;;;;;;;5059024;28;20039;-95
2023/08/25 09:45:43;;;;;;;2.53;2.00;;;;;;;;;;5059808;28;20056;-96
2023/08/25 09:48:12;;;;;;;3.60;1.95;;;;;;;;;;5061644;28;20021;-95
2023/08/25 09:50:39;;;;;;;3.55;2.17;;;;;;;;;;5056596;28;20110;-92
2023/08/25 09:53:08;;;;;;;3.70;1.70;;;;;;;;;;5052370;28;20109;-95
2023/08/25 09:55:36;;;;;;;3.50;2.08;;;;;;;;;;5055201;28;20612;-94
2023/08/25 09:58:03;;;;;;;7.15;2.38;;;;;;;;;;5052803;28;20470;-89
2023/08/25 10:00:29;;;;;;;2.97;2.03;;;;;;;;;;5069790;28;20116;-91
2023/08/25 10:02:55;;;;;;;4.25;1.88;;;;;;;;;;5049622;28;20032;-94
2023/08/25 10:05:22;;;;;;;5.90;2.17;;;;;;;;;;5049957;28;20021;-94
2023/08/25 10:07:48;;;;;;;2.00;1.80;;;;;;;;;;5053647;28;20031;-95
2023/08/25 10:10:14;;;;;;;3.90;2.15;;;;;;;;;;5050890;28;20025;-95
2023/08/25 10:12:42;;;;;;;5.55;2.08;;;;;;;;;;5058963;28;20040;-91
2023/08/25 10:15:09;;;;;;;4.63;2.00;;;;;;;;;;5054421;28;20123;-92
2023/08/25 10:17:36;;;;;;;4.07;2.25;;;;;;;;;;5050978;28;20112;-90
2023/08/25 10:20:04;;;;;;;9.25;2.70;;;;;;;;;;5053921;28;20110;-91
2023/08/25 10:22:30;;;;;;;4.43;2.10;;;;;;;;;;5057114;28;20024;-91
2023/08/25 10:25:00;;;;;;;7.95;2.53;;;;;;;;;;5052448;28;20024;-96
2023/08/25 10:27:27;;;;;;;3.90;2.35;;;;;;;;;;5065773;28;20020;-92
2023/08/25 10:29:54;;;;;;;3.13;2.15;;;;;;;;;;5058532;28;20028;-93
2023/08/25 10:32:24;;;;;;;2.88;2.30;;;;;;;;;;5048775;28;20040;-96
2023/08/25 10:34:53;;;;;;;3.47;2.25;;;;;;;;;;5065682;28;20083;-93
2023/08/25 10:37:26;;;;;;;3.60;2.33;;;;;;;;;;5053908;28;20461;-93
2023/08/25 10:40:08;;;;;;;12.10;3.20;;;;;;;;;;5053858;28;20022;-92
2023/08/25 10:42:38;;;;;;;3.35;2.40;;;;;;;;;;5049941;28;20028;-93
2023/08/25 10:45:08;;;;;;;4.57;2.65;;;;;;;;;;5052998;28;20029;-92
2023/08/25 10:47:41;;;;;;;3.53;2.33;;;;;;;;;;5069869;28;20032;-91
2023/08/25 10:50:09;;;;;;;3.50;2.38;;;;;;;;;;5068111;28;20075;-93
2023/08/25 10:52:43;;;;;;;6.28;2.47;;;;;;;;;;5052636;28;20587;-93
2023/08/25 10:55:47;;;;;;;4.57;2.67;;;;;;;;;;5066034;28;20136;-93
2023/08/25 10:58:18;;;;;;;7.97;3.05;;;;;;;;;;5050441;28;20374;-93
2023/08/25 11:00:48;;;;;;;5.85;2.50;;;;;;;;;;5050070;28;20049;-93
2023/08/25 11:03:23;;;;;;;4.07;2.60;;;;;;;;;;5066051;28;20595;-94
2023/08/25 11:06:03;;;;;;;3.65;2.30;;;;;;;;;;5047295;28;20036;-96
2023/08/25 11:08:29;;;;;;;4.80;2.30;;;;;;;;;;5048480;28;20017;-94
2023/08/25 11:11:15;;;;;;;3.47;2.30;;;;;;;;;;5048222;28;20051;-96
2023/08/25 11:19:32;;;;;;;6.50;2.53;;;;;;;;;;5068915;28;20579;-93
2023/08/25 11:21:59;;;;;;;3.08;2.30;;;;;;;;;;5068196;28;20040;-94
2023/08/25 11:24:25;;;;;;;3.60;2.17;;;;;;;;;;5050634;28;20024;-93
2023/08/25 11:26:51;;;;;;;3.33;2.10;;;;;;;;;;5048681;28;20052;-92
2023/08/25 11:29:17;;;;;;;4.68;2.20;;;;;;;;;;5047804;28;20033;-92
2023/08/25 11:31:44;;;;;;;3.90;2.17;;;;;;;;;;5053609;28;20036;-93
2023/08/25 11:34:10;;;;;;;5.85;1.80;;;;;;;;;;5067415;28;20039;-94
2023/08/25 11:36:36;;;;;;;4.82;1.98;;;;;;;;;;5051771;28;20021;-92
2023/08/25 11:39:04;;;;;;;3.60;2.10;;;;;;;;;;5058437;28;20021;-89
2023/08/25 11:41:30;;;;;;;4.00;2.33;;;;;;;;;;5054662;28;20029;-95
2023/08/25 11:43:56;;;;;;;5.57;2.22;;;;;;;;;;5051256;28;20465;-95
2023/08/25 11:46:22;;;;;;;4.38;2.45;;;;;;;;;;5050575;28;20490;-96
2023/08/25 11:48:48;;;;;;;2.85;2.38;;;;;;;;;;5047741;28;20021;-92
2023/08/25 11:51:18;;;;;;;4.65;2.25;;;;;;;;;;5047197;28;20025;-92
2023/08/25 11:53:45;;;;;;;7.28;2.42;;;;;;;;;;5053342;28;20031;-88
2023/08/25 11:56:19;;;;;;;3.47;2.20;;;;;;;;;;5065313;28;20039;-94
2023/08/25 11:58:50;;;;;;;3.78;2.42;;;;;;;;;;5055705;28;20119;-95
2023/08/25 12:01:16;;;;;;;7.53;2.45;;;;;;;;;;5053424;28;20021;-96
2023/08/25 12:03:45;;;;;;;4.40;2.50;;;;;;;;;;5070496;28;20078;-90
2023/08/25 12:06:11;;;;;;;2.72;1.80;;;;;;;;;;5054800;28;20025;-95
2023/08/25 12:08:39;;;;;;;4.63;2.20;;;;;;;;;;5054700;28;20028;-90
2023/08/25 12:11:11;;;;;;;5.00;2.15;;;;;;;;;;5054908;28;20032;-95
2023/08/25 12:13:41;;;;;;;8.00;2.42;;;;;;;;;;5049314;28;20439;-94
2023/08/25 12:16:07;;;;;;;;;;;;;;;;;;5048297;28;20032;-93
2023/08/25 12:18:34;;;;;;;3.42;2.30;;;;;;;;;;5062645;28;20023;-95
2023/08/25 12:21:04;;;;;;;5.00;2.20;;;;;;;;;;5047045;28;20024;-89
2023/08/25 12:23:40;;;;;;;3.72;2.25;;;;;;;;;;5053072;28;20115;-93
2023/08/25 12:26:08;;;;;;;3.55;2.13;;;;;;;;;;5049274;28;20028;-91
2023/08/25 12:28:34;;;;;;;4.90;2.15;;;;;;;;;;5052164;28;20016;-93
2023/08/25 12:31:00;;;;;;;8.00;2.40;;;;;;;;;;5050257;28;20031;-91
2023/08/25 12:33:27;;;;;;;2.60;2.15;;;;;;;;;;5050626;28;20472;-92
2023/08/25 12:35:53;;;;;;;2.67;1.92;;;;;;;;;;5049463;28;20036;-93
2023/08/25 12:38:19;;;;;;;3.33;2.10;;;;;;;;;;5049172;28;20468;-92
2023/08/25 12:40:45;;;;;;;4.10;2.10;;;;;;;;;;5049494;28;20115;-91
2023/08/25 12:43:11;;;;;;;2.70;2.22;;;;;;;;;;5051166;28;20123;-95
2023/08/25 12:45:38;;;;;;;3.30;1.88;;;;;;;;;;5053178;28;20044;-91
2023/08/25 12:48:04;;;;;;;4.32;2.22;;;;;;;;;;5044965;28;20148;-94
2023/08/25 12:50:30;;;;;;;4.30;2.45;;;;;;;;;;5055727;28;20029;-95
2023/08/25 12:52:56;;;;;;;2.42;2.22;;;;;;;;;;5047194;28;20076;-93
2023/08/25 12:55:22;;;;;;;3.30;2.38;;;;;;;;;;5050741;28;20033;-91
2023/08/25 12:57:52;;;;;;;6.78;2.88;;;;;;;;;;5046940;28;20025;-91
2023/08/25 13:00:18;;;;;;;3.15;2.50;;;;;;;;;;5048853;28;20020;-92
2023/08/25 13:02:44;;;;;;;2.80;2.28;;;;;;;;;;5051880;28;20020;-91
2023/08/25 13:05:10;;;;;;;1.80;1.52;;;;;;;;;;5049711;28;20029;-92
2023/08/25 13:07:40;;;;;;;2.13;1.33;;;;;;;;;;5050920;28;20025;-86
2023/08/25 13:10:09;;;;;;;9.38;2.90;;;;;;;;;;5048652;28;20021;-94
2023/08/25 13:12:35;;;;;;;6.78;2.97;;;;;;;;;;5054885;28;20096;-92
2023/08/25 13:15:02;;;;;;;5.63;2.65;;;;;;;;;;5047659;28;20036;-91
2023/08/25 13:17:29;;;;;;;2.55;2.13;;;;;;;;;;5055278;28;20492;-89
2023/08/25 13:19:55;;;;;;;6.43;2.53;;;;;;;;;;5052369;28;20071;-92
2023/08/25 13:22:21;;;;;;;3.13;2.80;;;;;;;;;;5043758;28;20025;-92
2023/08/25 13:24:48;;;;;;;7.97;2.65;;;;;;;;;;5050225;28;20047;-90
2023/08/25 13:27:15;;;;;;;6.65;2.40;;;;;;;;;;5043161;28;20057;-91
2023/08/25 13:29:41;;;;;;;3.65;2.60;;;;;;;;;;5049768;28;20108;-89
2023/08/25 13:32:07;;;;;;;4.47;2.72;;;;;;;;;;5052445;28;20032;-90
2023/08/25 13:34:33;;;;;;;3.72;2.83;;;;;;;;;;5074013;28;20031;-94
2023/08/25 13:36:59;;;;;;;6.90;2.53;;;;;;;;;;5055914;28;20017;-93
2023/08/25 13:39:25;;;;;;;6.93;2.97;;;;;;;;;;5072517;28;20465;-92
2023/08/25 13:41:51;;;;;;;5.82;2.85;;;;;;;;;;5071633;28;20013;-95
2023/08/25 13:44:17;;;;;;;6.57;2.65;;;;;;;;;;5051385;28;20029;-92
2023/08/25 13:46:43;;;;;;;4.18;2.80;;;;;;;;;;5070538;28;20028;-90
2023/08/25 13:49:09;;;;;;;6.10;2.70;;;;;;;;;;5073472;28;20040;-90
2023/08/25 13:51:35;;;;;;;4.53;2.58;;;;;;;;;;5050669;28;20127;-91
2023/08/25 13:54:02;;;;;;;7.45;3.35;;;;;;;;;;5050288;28;20094;-93
2023/08/25 13:56:28;;;;;;;5.15;3.30;;;;;;;;;;5053941;28;20036;-91
2023/08/25 13:58:54;;;;;;;8.90;3.15;;;;;;;;;;5049388;28;20393;-93
2023/08/25 14:01:20;;;;;;;5.70;2.95;;;;;;;;;;5050610;28;20024;-95
2023/08/25 14:03:47;;;;;;;6.72;3.50;;;;;;;;;;5046875;28;20491;-93
2023/08/25 14:06:14;;;;;;;4.90;2.75;;;;;;;;;;5051175;28;20115;-96
2023/08/25 14:08:41;;;;;;;6.03;3.13;;;;;;;;;;5057701;28;20016;-95
2023/08/25 14:11:07;;;;;;;7.28;2.90;;;;;;;;;;5054298;28;20108;-92
2023/08/25 14:13:33;;;;;;;6.47;3.15;;;;;;;;;;5049356;28;20020;-93
2023/08/25 14:15:59;;;;;;;6.40;3.05;;;;;;;;;;5050755;28;20079;-91
2023/08/25 14:18:25;;;;;;;6.13;3.03;;;;;;;;;;5053303;28;20425;-90
2023/08/25 14:20:51;;;;;;;6.95;3.15;;;;;;;;;;5049465;28;20052;-89
2023/08/25 14:23:17;;;;;;;6.00;3.45;;;;;;;;;;5046168;28;20029;-89
2023/08/25 14:25:43;;;;;;;6.35;3.50;;;;;;;;;;5058327;28;20029;-91
2023/08/25 14:28:09;;;;;;;5.10;2.78;;;;;;;;;;5048553;28;20425;-90
2023/08/25 14:30:35;;;;;;;8.00;3.70;;;;;;;;;;5054760;28;20484;-94
2023/08/25 14:33:01;;;;;;;6.65;3.53;;;;;;;;;;5053266;28;20036;-90
2023/08/25 14:35:27;;;;;;;5.32;2.92;;;;;;;;;;5047785;28;20037;-91
2023/08/25 14:37:54;;;;;;;6.88;3.28;;;;;;;;;;5051268;28;20024;-93
2023/08/25 14:40:20;;;;;;;7.53;3.83;;;;;;;;;;5053040;28;20260;-94
2023/08/25 14:42:46;;;;;;;7.75;3.13;;;;;;;;;;5068163;28;20020;-92
2023/08/25 14:45:16;;;;;;;9.60;3.67;;;;;;;;;;5049222;28;20477;-92
2023/08/25 14:47:42;;;;;;;8.45;3.58;;;;;;;;;;5052756;28;20017;-90
2023/08/25 14:50:08;;;;;;;7.15;2.95;;;;;;;;;;5068402;28;20025;-94
2023/08/25 14:52:34;;;;;;;5.70;3.90;;;;;;;;;;5067047;28;20395;-95